Time;durP1;ratioP1;P1;durP2;ratioP2;P2;SDS_P1;SDS_P2;PMS_P1;PMS_P2;Temp;Humidity;BMP_temperature;BMP_pressure;BME280_temperature;BME280_humidity;BME280_pressure;Samples;Min_cycle;Max_cycle;Signal;HPM_P1;HPM_P2
2022/03/10 00:01:05;;;;;;;5.80;5.00;;;18.80;32.40;;;;;;5048808;28;20438;-80
2022/03/10 00:03:33;;;;;;;6.20;4.70;;;18.70;32.40;;;;;;5047763;28;20451;-82
2022/03/10 00:06:01;;;;;;;5.17;4.60;;;18.70;32.50;;;;;;5049468;28;20458;-81
2022/03/10 00:08:29;;;;;;;7.00;4.87;;;18.70;32.70;;;;;;5053913;28;20492;-82
2022/03/10 00:10:57;;;;;;;5.27;4.50;;;18.70;32.60;;;;;;5049233;28;20463;-81
2022/03/10 00:13:26;;;;;;;5.43;4.83;;;18.60;32.60;;;;;;5049277;28;20447;-82
2022/03/10 00:15:54;;;;;;;6.20;4.90;;;18.60;32.70;;;;;;5046600;28;20476;-80
2022/03/10 00:18:24;;;;;;;4.67;4.23;;;18.60;32.90;;;;;;5047947;28;20488;-82
2022/03/10 00:20:51;;;;;;;4.90;4.33;;;18.50;32.80;;;;;;5048498;28;20475;-82
2022/03/10 00:23:19;;;;;;;6.87;4.97;;;18.50;32.80;;;;;;5050364;28;20520;-81
2022/03/10 00:25:47;;;;;;;7.20;4.90;;;18.50;32.90;;;;;;5048688;28;20463;-81
2022/03/10 00:28:18;;;;;;;5.50;4.50;;;18.40;32.90;;;;;;5047211;28;20451;-82
2022/03/10 00:30:45;;;;;;;5.70;4.87;;;18.40;32.90;;;;;;5043915;28;20496;-81
2022/03/10 00:33:15;;;;;;;5.50;4.73;;;18.40;32.90;;;;;;5047268;28;20486;-81
2022/03/10 00:35:44;;;;;;;5.57;4.97;;;18.40;32.90;;;;;;5046136;28;20469;-81
2022/03/10 00:38:13;;;;;;;6.70;4.93;;;18.30;33.00;;;;;;5049928;28;20437;-81
2022/03/10 00:40:41;;;;;;;5.27;4.77;;;18.30;33.10;;;;;;5050216;28;20558;-81
2022/03/10 00:43:11;;;;;;;4.77;4.27;;;18.20;33.10;;;;;;5051891;28;20470;-82
2022/03/10 00:45:39;;;;;;;6.33;5.30;;;18.20;33.20;;;;;;5051082;28;20839;-81
2022/03/10 00:48:09;;;;;;;6.90;4.50;;;18.20;33.30;;;;;;5054762;28;20450;-82
2022/03/10 00:50:37;;;;;;;6.50;4.67;;;18.10;33.20;;;;;;5044772;28;20485;-82
2022/03/10 00:53:07;;;;;;;7.40;5.00;;;18.10;33.30;;;;;;5055435;28;20550;-82
2022/03/10 00:55:35;;;;;;;5.30;4.60;;;18.10;33.30;;;;;;5053961;28;20482;-82
2022/03/10 00:58:03;;;;;;;6.73;5.20;;;18.10;33.40;;;;;;5057003;28;20431;-83
2022/03/10 01:00:31;;;;;;;6.63;4.50;;;18.10;33.30;;;;;;5055379;28;20438;-82
2022/03/10 01:03:00;;;;;;;6.00;5.00;;;18.00;33.40;;;;;;5054860;28;20463;-83
2022/03/10 01:05:28;;;;;;;5.37;4.80;;;18.00;33.50;;;;;;5054348;28;20496;-83
2022/03/10 01:07:56;;;;;;;5.90;5.13;;;18.00;33.50;;;;;;5055424;28;20450;-83
2022/03/10 01:10:26;;;;;;;5.93;4.90;;;17.90;33.50;;;;;;5054672;28;20474;-82
2022/03/10 01:12:54;;;;;;;5.30;4.80;;;17.90;33.60;;;;;;5054649;28;20459;-82
2022/03/10 01:15:23;;;;;;;7.10;5.40;;;17.90;33.60;;;;;;5056369;28;20438;-83
2022/03/10 01:17:54;;;;;;;8.50;5.33;;;17.90;33.70;;;;;;5056406;28;20431;-83
2022/03/10 01:20:23;;;;;;;7.30;5.03;;;17.80;33.60;;;;;;5055489;28;20438;-82
2022/03/10 01:22:51;;;;;;;5.27;4.77;;;17.80;33.70;;;;;;5054785;28;20508;-82
2022/03/10 01:25:19;;;;;;;4.73;4.30;;;17.80;33.70;;;;;;5055112;28;20446;-82
2022/03/10 01:27:51;;;;;;;5.97;4.67;;;17.80;33.70;;;;;;5055595;28;20512;-82
2022/03/10 01:30:19;;;;;;;5.57;4.97;;;17.80;33.80;;;;;;5054883;28;20482;-80
2022/03/10 01:32:47;;;;;;;5.53;4.87;;;17.80;33.90;;;;;;5054743;28;20528;-82
2022/03/10 01:35:15;;;;;;;5.57;4.90;;;17.70;33.90;;;;;;5054304;28;20463;-82
2022/03/10 01:37:43;;;;;;;5.70;4.80;;;17.70;33.90;;;;;;5054413;28;20438;-81
2022/03/10 01:40:13;;;;;;;5.70;4.73;;;17.60;33.90;;;;;;5053014;28;20470;-82
2022/03/10 01:42:41;;;;;;;6.53;5.10;;;17.60;34.00;;;;;;5052833;28;20546;-82
2022/03/10 01:45:11;;;;;;;6.80;5.57;;;17.60;34.00;;;;;;5049537;28;20466;-82
2022/03/10 01:47:39;;;;;;;4.97;4.50;;;17.60;34.20;;;;;;5044503;28;20504;-82
2022/03/10 01:50:08;;;;;;;5.23;4.73;;;17.60;34.20;;;;;;5054001;28;20496;-81
2022/03/10 01:52:35;;;;;;;4.87;4.30;;;17.50;34.10;;;;;;5053865;28;20470;-80
2022/03/10 01:55:04;;;;;;;5.77;5.10;;;17.40;34.10;;;;;;5058705;28;20431;-81
2022/03/10 01:57:32;;;;;;;4.97;4.47;;;17.50;34.30;;;;;;5052275;28;20450;-82
2022/03/10 02:00:00;;;;;;;6.97;4.87;;;17.50;34.30;;;;;;5050727;28;20538;-82
2022/03/10 02:02:29;;;;;;;5.43;4.93;;;17.40;34.30;;;;;;5052018;28;20438;-81
2022/03/10 02:04:57;;;;;;;5.20;4.70;;;17.40;34.40;;;;;;5047163;28;20494;-82
2022/03/10 02:10:18;;;;;;;6.00;5.10;;;17.30;34.40;;;;;;5040805;28;20419;-83
2022/03/10 02:12:46;;;;;;;6.40;5.20;;;17.30;34.50;;;;;;5041755;28;20482;-83
2022/03/10 02:18:03;;;;;;;6.43;5.00;;;17.20;34.60;;;;;;5042804;28;20559;-84
2022/03/10 02:20:31;;;;;;;6.40;5.30;;;17.10;34.50;;;;;;5040768;28;20508;-82
2022/03/10 02:23:01;;;;;;;6.50;5.10;;;17.20;34.70;;;;;;5044880;28;20509;-82
2022/03/10 02:25:29;;;;;;;7.37;5.00;;;17.10;34.50;;;;;;5043671;28;20438;-82
2022/03/10 02:27:57;;;;;;;6.50;5.20;;;17.10;34.70;;;;;;5042772;28;20440;-82
2022/03/10 02:30:28;;;;;;;5.27;4.60;;;17.10;34.80;;;;;;5043683;28;20446;-82
2022/03/10 02:32:56;;;;;;;7.70;5.60;;;17.00;34.60;;;;;;5049848;28;20470;-82
2022/03/10 02:35:24;;;;;;;8.30;5.13;;;17.00;34.80;;;;;;5043470;28;20466;-82
2022/03/10 02:37:52;;;;;;;6.83;5.40;;;17.00;34.90;;;;;;5043670;28;20474;-81
2022/03/10 02:40:22;;;;;;;5.00;4.27;;;17.00;34.90;;;;;;5042043;28;20419;-82
2022/03/10 02:42:50;;;;;;;8.40;5.50;;;17.00;34.90;;;;;;5041227;28;20538;-81
2022/03/10 02:45:18;;;;;;;5.27;4.77;;;16.90;34.90;;;;;;5043183;28;20510;-82
2022/03/10 02:47:46;;;;;;;5.40;4.90;;;16.90;35.00;;;;;;5049396;28;20474;-83
2022/03/10 02:50:14;;;;;;;5.80;4.80;;;16.90;35.00;;;;;;5044310;28;20431;-81
2022/03/10 02:52:43;;;;;;;5.60;4.60;;;16.90;35.00;;;;;;5041360;28;20502;-82
2022/03/10 02:55:11;;;;;;;6.40;5.10;;;16.80;35.10;;;;;;5043278;28;20461;-82
2022/03/10 02:57:40;;;;;;;5.30;4.80;;;16.80;35.70;;;;;;5041728;28;20493;-82
2022/03/10 03:00:09;;;;;;;6.17;4.97;;;16.80;35.20;;;;;;5042509;28;20435;-82
2022/03/10 03:02:37;;;;;;;6.47;5.30;;;16.70;35.00;;;;;;5045722;28;20472;-82
2022/03/10 03:05:06;;;;;;;5.40;4.90;;;16.70;35.20;;;;;;5051942;28;20458;-82
2022/03/10 03:07:34;;;;;;;7.07;5.47;;;16.70;35.10;;;;;;5041660;28;20471;-82
2022/03/10 03:10:02;;;;;;;6.33;5.27;;;16.70;35.20;;;;;;5042447;28;20442;-82
2022/03/10 03:12:30;;;;;;;5.97;4.90;;;16.60;35.20;;;;;;5036499;28;20466;-81
2022/03/10 03:15:00;;;;;;;5.70;5.10;;;16.60;35.20;;;;;;5035428;28;20463;-81
2022/03/10 03:17:28;;;;;;;6.80;5.00;;;16.60;35.20;;;;;;5036505;28;20443;-82
2022/03/10 03:19:56;;;;;;;7.10;5.40;;;16.60;35.40;;;;;;5048261;28;20481;-82
2022/03/10 03:22:23;;;;;;;6.33;4.83;;;16.50;35.40;;;;;;5055496;28;20427;-81
2022/03/10 03:24:51;;;;;;;7.43;5.30;;;16.50;35.50;;;;;;5056126;28;20471;-81
2022/03/10 03:27:19;;;;;;;7.90;4.73;;;16.50;35.50;;;;;;5056657;28;20470;-82
2022/03/10 03:29:48;;;;;;;6.57;4.80;;;16.50;35.60;;;;;;5055862;28;20477;-81
2022/03/10 03:32:18;;;;;;;7.63;4.93;;;16.40;35.60;;;;;;5056058;28;20520;-82
2022/03/10 03:34:45;;;;;;;6.50;5.23;;;16.40;35.60;;;;;;5056630;28;20508;-81
2022/03/10 03:37:13;;;;;;;5.40;4.80;;;16.40;35.70;;;;;;5055278;28;20474;-81
2022/03/10 03:39:41;;;;;;;6.30;5.17;;;16.30;35.70;;;;;;5048913;28;20467;-81
2022/03/10 03:42:09;;;;;;;5.70;5.10;;;16.30;35.70;;;;;;5055975;28;20434;-81
2022/03/10 03:44:37;;;;;;;7.83;5.33;;;16.30;35.80;;;;;;5055741;28;20475;-80
2022/03/10 03:47:06;;;;;;;5.93;5.33;;;16.30;35.70;;;;;;5056167;28;20473;-82
2022/03/10 03:49:35;;;;;;;5.37;4.87;;;16.20;35.80;;;;;;5056732;28;20443;-81
2022/03/10 03:52:03;;;;;;;7.03;5.20;;;16.30;36.00;;;;;;5055698;28;20474;-81
2022/03/10 03:54:31;;;;;;;6.27;5.20;;;16.20;35.80;;;;;;5055729;28;20537;-81
2022/03/10 03:56:59;;;;;;;5.87;5.27;;;16.20;35.90;;;;;;5056290;28;20938;-80
2022/03/10 03:59:27;;;;;;;8.20;5.40;;;16.20;35.80;;;;;;5056150;28;20477;-81
2022/03/10 04:01:55;;;;;;;5.97;5.37;;;16.10;35.80;;;;;;5055877;28;20477;-81
2022/03/10 04:04:23;;;;;;;6.37;4.80;;;16.10;35.90;;;;;;5056046;28;20455;-82
2022/03/10 04:06:53;;;;;;;5.40;4.90;;;16.10;35.90;;;;;;5055597;28;20997;-82
2022/03/10 04:09:20;;;;;;;6.07;5.23;;;16.10;36.10;;;;;;5055163;28;20439;-81
2022/03/10 04:11:48;;;;;;;5.10;4.70;;;16.10;36.00;;;;;;5053706;28;20489;-81
2022/03/10 04:14:18;;;;;;;7.83;5.63;;;16.10;36.00;;;;;;5055177;28;20447;-81
2022/03/10 04:16:48;;;;;;;5.87;4.87;;;16.00;36.00;;;;;;5055106;28;20448;-81
2022/03/10 04:19:18;;;;;;;5.90;5.20;;;16.00;36.10;;;;;;5054671;28;20444;-80
2022/03/10 04:21:48;;;;;;;7.17;5.20;;;16.00;36.00;;;;;;5054763;28;20523;-81
2022/03/10 04:24:20;;;;;;;5.60;4.40;;;16.00;36.20;;;;;;5054752;28;20453;-81
2022/03/10 04:26:48;;;;;;;6.53;5.50;;;16.00;36.10;;;;;;5054137;28;21008;-81
2022/03/10 04:29:16;;;;;;;5.93;5.30;;;15.90;36.00;;;;;;5054810;28;20431;-81
2022/03/10 04:31:44;;;;;;;5.80;4.90;;;15.90;36.10;;;;;;5054506;28;20470;-82
2022/03/10 04:34:12;;;;;;;7.03;5.13;;;15.90;36.20;;;;;;5054454;28;20470;-82
2022/03/10 04:36:40;;;;;;;5.67;5.10;;;15.80;36.20;;;;;;5054023;28;20477;-82
2022/03/10 04:39:08;;;;;;;6.27;5.63;;;15.80;36.20;;;;;;5054676;28;20422;-82
2022/03/10 04:41:37;;;;;;;9.17;6.30;;;15.80;36.40;;;;;;5054930;28;20457;-81
2022/03/10 04:44:06;;;;;;;6.60;5.43;;;15.70;36.30;;;;;;5054091;28;20509;-81
2022/03/10 04:46:34;;;;;;;6.30;5.40;;;15.70;37.00;;;;;;5054171;28;20446;-82
2022/03/10 04:49:02;;;;;;;5.57;4.87;;;15.70;36.40;;;;;;5054018;28;20473;-81
2022/03/10 04:51:30;;;;;;;5.97;5.30;;;15.70;36.50;;;;;;5053728;28;20465;-82
2022/03/10 04:53:58;;;;;;;7.07;5.50;;;15.70;36.50;;;;;;5053023;28;20478;-81
2022/03/10 04:56:28;;;;;;;7.60;5.40;;;15.60;36.40;;;;;;5053947;28;20806;-81
2022/03/10 04:58:57;;;;;;;5.97;5.00;;;15.60;36.60;;;;;;5054538;28;20454;-81
2022/03/10 05:01:25;;;;;;;7.70;5.67;;;15.60;36.60;;;;;;5054375;28;20435;-82
2022/03/10 05:03:53;;;;;;;6.33;5.10;;;15.60;36.70;;;;;;5054260;28;20533;-82
2022/03/10 05:06:27;;;;;;;6.37;5.60;;;15.60;36.50;;;;;;5053857;28;20437;-82
2022/03/10 05:08:54;;;;;;;8.10;5.40;;;15.50;36.60;;;;;;5054207;28;20493;-82
2022/03/10 05:11:22;;;;;;;6.77;5.77;;;15.50;36.70;;;;;;5052225;28;20450;-82
2022/03/10 05:13:56;;;;;;;7.00;5.70;;;15.50;36.70;;;;;;5053522;28;20475;-81
2022/03/10 05:16:24;;;;;;;6.27;5.20;;;15.50;36.80;;;;;;5053717;28;20462;-82
2022/03/10 05:18:53;;;;;;;7.03;5.27;;;15.40;36.70;;;;;;5054400;28;20458;-81
2022/03/10 05:21:20;;;;;;;6.97;5.50;;;15.40;36.80;;;;;;5053522;28;20426;-81
2022/03/10 05:23:52;;;;;;;6.50;5.53;;;15.40;36.90;;;;;;5053789;28;20451;-81
2022/03/10 05:26:19;;;;;;;6.43;5.60;;;15.40;36.80;;;;;;5054245;28;20438;-82
2022/03/10 05:28:47;;;;;;;5.83;5.00;;;15.40;36.80;;;;;;5053358;28;20490;-82
2022/03/10 05:31:17;;;;;;;7.47;5.60;;;15.30;36.80;;;;;;5053577;28;20431;-82
2022/03/10 05:33:45;;;;;;;6.73;5.40;;;15.30;36.90;;;;;;5053754;28;20509;-82
2022/03/10 05:36:13;;;;;;;10.23;5.10;;;15.30;37.00;;;;;;5053062;28;20426;-81
2022/03/10 05:38:41;;;;;;;5.73;5.03;;;15.40;37.10;;;;;;5053444;28;20438;-81
2022/03/10 05:41:09;;;;;;;6.30;5.27;;;15.30;37.00;;;;;;5053613;28;20459;-81
2022/03/10 05:43:37;;;;;;;5.40;4.90;;;15.30;37.00;;;;;;5053400;28;20478;-81
2022/03/10 05:46:05;;;;;;;6.77;5.67;;;15.30;37.00;;;;;;5052573;28;20490;-81
2022/03/10 05:48:34;;;;;;;9.80;5.37;;;15.30;37.10;;;;;;5052854;28;20427;-81
2022/03/10 05:51:02;;;;;;;6.93;5.07;;;15.20;37.10;;;;;;5053195;28;20439;-81
2022/03/10 05:53:30;;;;;;;6.60;5.20;;;15.20;37.10;;;;;;5052803;28;20475;-82
2022/03/10 05:55:58;;;;;;;6.87;5.47;;;15.20;37.20;;;;;;5053263;28;20470;-82
2022/03/10 05:58:26;;;;;;;5.90;4.90;;;15.20;37.20;;;;;;5053215;28;20445;-81
2022/03/10 06:00:54;;;;;;;6.43;5.10;;;15.20;37.20;;;;;;5053638;28;20466;-81
2022/03/10 06:03:22;;;;;;;6.93;5.10;;;15.20;37.20;;;;;;5053198;28;20520;-81
2022/03/10 06:05:52;;;;;;;5.80;5.00;;;15.20;37.30;;;;;;5053550;28;20434;-81
2022/03/10 06:08:19;;;;;;;5.40;4.60;;;15.20;37.20;;;;;;5053327;28;20488;-80
2022/03/10 06:10:49;;;;;;;6.10;5.17;;;15.20;37.20;;;;;;5053075;28;20443;-81
2022/03/10 06:13:17;;;;;;;8.67;5.30;;;15.10;37.20;;;;;;5052662;28;20475;-81
2022/03/10 06:15:45;;;;;;;5.33;4.83;;;15.10;37.30;;;;;;5052839;28;20449;-81
2022/03/10 06:18:13;;;;;;;6.27;5.07;;;15.10;37.20;;;;;;5051726;28;20458;-81
2022/03/10 06:20:41;;;;;;;6.03;4.97;;;15.10;37.30;;;;;;5044840;28;20443;-81
2022/03/10 06:23:11;;;;;;;6.97;5.23;;;15.10;37.30;;;;;;5053076;28;20493;-81
2022/03/10 06:25:39;;;;;;;6.83;5.30;;;15.10;37.40;;;;;;5053103;28;20450;-81
2022/03/10 06:28:09;;;;;;;6.50;5.40;;;15.10;37.30;;;;;;5053094;28;20446;-81
2022/03/10 06:30:37;;;;;;;7.60;4.97;;;15.10;37.40;;;;;;5053138;28;20500;-81
2022/03/10 06:33:05;;;;;;;7.53;5.40;;;15.20;37.50;;;;;;5053394;28;20462;-81
2022/03/10 06:35:33;;;;;;;7.00;5.57;;;15.20;37.40;;;;;;5052494;28;20458;-81
2022/03/10 06:38:01;;;;;;;5.60;5.00;;;15.20;37.30;;;;;;5053959;28;20504;-81
2022/03/10 06:40:30;;;;;;;6.63;5.30;;;15.30;37.50;;;;;;5053412;28;20501;-81
2022/03/10 06:42:58;;;;;;;6.53;5.37;;;15.30;37.40;;;;;;5052874;28;20470;-82
2022/03/10 06:45:26;;;;;;;5.80;5.00;;;15.40;37.40;;;;;;5053521;28;20423;-81
2022/03/10 06:47:54;;;;;;;6.70;4.90;;;15.40;37.80;;;;;;5052799;28;20469;-81
2022/03/10 06:50:22;;;;;;;6.70;5.07;;;15.50;37.10;;;;;;5055901;28;20438;-81
2022/03/10 06:52:51;;;;;;;5.20;4.70;;;15.60;37.20;;;;;;5054846;28;20516;-82
2022/03/10 06:55:20;;;;;;;6.27;5.60;;;15.60;36.80;;;;;;5055474;28;20466;-81
2022/03/10 06:57:49;;;;;;;6.10;4.93;;;15.70;37.00;;;;;;5056340;28;20438;-81
2022/03/10 07:00:18;;;;;;;6.37;5.77;;;15.70;36.90;;;;;;5056111;28;20446;-81
2022/03/10 07:02:46;;;;;;;6.83;5.33;;;15.70;37.00;;;;;;5056191;28;20462;-81
2022/03/10 07:05:14;;;;;;;7.13;5.30;;;15.70;37.00;;;;;;5056410;28;20442;-81
2022/03/10 07:07:42;;;;;;;7.43;5.57;;;15.80;36.80;;;;;;5054155;28;20503;-81
2022/03/10 07:10:12;;;;;;;5.90;5.20;;;15.80;37.00;;;;;;5055761;28;20431;-82
2022/03/10 07:12:40;;;;;;;6.73;5.40;;;15.90;36.80;;;;;;5056227;28;20492;-81
2022/03/10 07:15:11;;;;;;;6.10;5.30;;;15.90;36.60;;;;;;5056345;28;20558;-81
2022/03/10 07:17:39;;;;;;;6.23;5.40;;;15.90;36.50;;;;;;5056890;28;20446;-82
2022/03/10 07:20:08;;;;;;;5.80;5.20;;;15.90;36.50;;;;;;5055793;28;20422;-82
2022/03/10 07:22:36;;;;;;;5.70;5.10;;;15.90;36.70;;;;;;5054444;28;20452;-82
2022/03/10 07:25:04;;;;;;;7.27;5.50;;;15.90;36.90;;;;;;5056080;28;20423;-82
2022/03/10 07:27:32;;;;;;;6.10;5.20;;;15.90;36.80;;;;;;5055990;28;20427;-82
2022/03/10 07:30:00;;;;;;;10.27;5.90;;;15.90;36.80;;;;;;5056155;28;20469;-82
2022/03/10 07:32:30;;;;;;;6.20;5.37;;;15.90;36.80;;;;;;5055735;28;20457;-81
2022/03/10 07:34:58;;;;;;;9.30;5.37;;;16.00;36.80;;;;;;5056275;28;20466;-82
2022/03/10 07:37:26;;;;;;;6.83;5.67;;;16.00;36.60;;;;;;5056490;28;20852;-82
2022/03/10 07:39:54;;;;;;;8.73;6.00;;;16.10;36.60;;;;;;5055037;28;20457;-82
2022/03/10 07:42:22;;;;;;;6.20;5.33;;;16.10;36.60;;;;;;5056022;28;20451;-82
2022/03/10 07:44:50;;;;;;;6.10;5.17;;;16.10;36.60;;;;;;5056712;28;20431;-82
2022/03/10 07:47:18;;;;;;;6.67;5.43;;;16.10;36.70;;;;;;5056296;28;20431;-82
2022/03/10 07:49:48;;;;;;;7.10;5.60;;;16.10;36.70;;;;;;5056303;28;20442;-82
2022/03/10 07:52:16;;;;;;;6.20;5.60;;;16.20;36.60;;;;;;5057087;28;20430;-81
2022/03/10 07:54:45;;;;;;;6.80;5.53;;;16.30;36.60;;;;;;5056025;28;20520;-82
2022/03/10 07:57:13;;;;;;;7.07;5.67;;;16.30;36.50;;;;;;5055389;28;20454;-82
2022/03/10 07:59:41;;;;;;;6.10;5.50;;;16.30;36.50;;;;;;5035843;28;20427;-83
2022/03/10 08:02:09;;;;;;;5.60;4.93;;;16.30;36.50;;;;;;5035893;28;20458;-83
2022/03/10 08:04:44;;;;;;;8.00;6.20;;;16.30;36.50;;;;;;5036089;28;20439;-83
2022/03/10 08:07:42;;;;;;;6.13;5.00;;;16.30;36.50;;;;;;5037401;28;20461;-82
2022/03/10 08:10:21;;;;;;;7.97;5.90;;;16.40;36.50;;;;;;5036383;28;20477;-82
2022/03/10 08:12:49;;;;;;;6.50;5.40;;;16.60;36.30;;;;;;5037876;28;20459;-82
2022/03/10 08:15:20;;;;;;;7.10;5.37;;;16.60;36.50;;;;;;5058339;28;20467;-81
2022/03/10 08:17:49;;;;;;;9.50;4.93;;;16.40;36.90;;;;;;5060950;28;20477;-80
2022/03/10 08:20:17;;;;;;;15.93;6.10;;;16.40;37.30;;;;;;5059587;28;20461;-81
2022/03/10 08:22:46;;;;;;;5.27;4.80;;;16.40;37.50;;;;;;5057781;28;20471;-80
2022/03/10 08:25:31;;;;;;;5.60;5.00;;;16.50;37.60;;;;;;5058364;28;20516;-80
2022/03/10 08:28:02;;;;;;;5.90;4.90;;;16.80;37.40;;;;;;5060770;28;20426;-81
2022/03/10 08:30:30;;;;;;;6.13;5.53;;;16.80;37.50;;;;;;5060728;28;20443;-81
2022/03/10 08:33:01;;;;;;;5.67;5.10;;;17.10;37.90;;;;;;5056882;28;20469;-82
2022/03/10 08:35:29;;;;;;;9.70;5.40;;;17.40;37.30;;;;;;5059812;28;20558;-81
2022/03/10 08:37:58;;;;;;;6.73;4.87;;;17.60;37.10;;;;;;5053348;28;20473;-81
2022/03/10 08:40:28;;;;;;;5.37;4.70;;;17.90;36.90;;;;;;5061562;28;20457;-82
2022/03/10 08:42:57;;;;;;;5.60;5.00;;;18.10;36.70;;;;;;5060811;28;20458;-82
2022/03/10 08:45:25;;;;;;;5.37;4.87;;;18.30;36.70;;;;;;5062187;28;20446;-82
2022/03/10 08:47:54;;;;;;;5.70;5.20;;;18.40;36.60;;;;;;5061046;28;20454;-82
2022/03/10 08:50:25;;;;;;;6.50;5.30;;;18.70;36.70;;;;;;5059721;28;20422;-82
2022/03/10 08:52:53;;;;;;;7.17;5.37;;;18.90;36.40;;;;;;5062502;28;20463;-82
2022/03/10 08:55:22;;;;;;;5.30;4.80;;;19.10;36.20;;;;;;5057617;28;20470;-82
2022/03/10 08:57:50;;;;;;;6.57;4.90;;;19.30;36.40;;;;;;5061275;28;20442;-82
2022/03/10 09:00:19;;;;;;;4.43;4.03;;;19.50;36.20;;;;;;5060350;28;20443;-82
2022/03/10 09:02:55;;;;;;;5.00;4.17;;;19.70;36.10;;;;;;5060136;28;20444;-82
2022/03/10 09:05:25;;;;;;;4.90;4.50;;;19.90;36.10;;;;;;5057699;28;20462;-82
2022/03/10 09:07:53;;;;;;;7.90;4.93;;;20.10;35.90;;;;;;5056703;28;20496;-83
2022/03/10 09:10:22;;;;;;;5.20;4.70;;;20.30;35.90;;;;;;5063701;28;20439;-80
2022/03/10 09:12:51;;;;;;;4.90;4.50;;;20.50;35.80;;;;;;5062446;28;20496;-82
2022/03/10 09:15:19;;;;;;;5.10;4.60;;;20.60;35.70;;;;;;5061862;28;20466;-82
2022/03/10 09:17:47;;;;;;;5.37;4.63;;;20.80;35.60;;;;;;5061266;28;20437;-82
2022/03/10 09:20:15;;;;;;;4.63;4.30;;;21.00;35.60;;;;;;5060756;28;20470;-81
2022/03/10 09:22:43;;;;;;;4.80;4.33;;;21.20;35.50;;;;;;5057733;28;20539;-82
2022/03/10 09:25:12;;;;;;;6.27;4.30;;;21.40;35.50;;;;;;5055262;28;20445;-81
2022/03/10 09:27:42;;;;;;;5.30;4.30;;;21.60;35.40;;;;;;5054767;28;20479;-81
2022/03/10 09:30:11;;;;;;;4.50;4.13;;;21.80;35.20;;;;;;5055640;28;20438;-81
2022/03/10 09:32:39;;;;;;;4.20;3.90;;;22.00;35.30;;;;;;5058123;28;20481;-81
2022/03/10 09:35:09;;;;;;;4.63;4.20;;;22.20;35.10;;;;;;5050898;28;20520;-81
2022/03/10 09:37:37;;;;;;;4.67;4.23;;;22.40;35.00;;;;;;5052389;28;20462;-81
2022/03/10 09:40:08;;;;;;;4.50;4.10;;;22.70;34.80;;;;;;5052871;28;20435;-81
2022/03/10 09:42:36;;;;;;;5.77;4.40;;;22.90;34.60;;;;;;5053541;28;20496;-81
2022/03/10 09:45:07;;;;;;;4.70;4.30;;;23.10;34.30;;;;;;5053477;28;20434;-80
2022/03/10 09:47:36;;;;;;;7.30;4.67;;;23.30;34.20;;;;;;5054106;28;20474;-81
2022/03/10 09:50:05;;;;;;;7.13;4.07;;;23.50;33.90;;;;;;5055057;28;20421;-80
2022/03/10 09:52:33;;;;;;;6.00;4.03;;;23.70;33.80;;;;;;5053931;28;20458;-81
2022/03/10 09:55:01;;;;;;;4.73;4.33;;;23.90;33.60;;;;;;5053019;28;20473;-81
2022/03/10 09:57:29;;;;;;;4.10;3.80;;;24.10;33.40;;;;;;5053263;28;20488;-81
2022/03/10 09:59:57;;;;;;;5.57;4.70;;;24.30;33.10;;;;;;5052410;28;20496;-83
2022/03/10 10:02:29;;;;;;;4.30;3.97;;;24.50;32.80;;;;;;5052103;28;20442;-81
2022/03/10 10:04:57;;;;;;;5.20;4.67;;;24.70;32.70;;;;;;5052709;28;20462;-80
2022/03/10 10:07:27;;;;;;;5.90;4.20;;;24.80;32.60;;;;;;5052232;28;20432;-81
2022/03/10 10:09:56;;;;;;;4.70;4.00;;;25.10;32.40;;;;;;5051892;28;20448;-81
2022/03/10 10:12:28;;;;;;;4.30;3.90;;;25.30;32.10;;;;;;5052041;28;20421;-81
2022/03/10 10:14:56;;;;;;;4.53;3.73;;;25.60;32.00;;;;;;5052350;28;20480;-80
2022/03/10 10:17:29;;;;;;;4.13;3.70;;;25.80;31.70;;;;;;5051471;28;20818;-81
2022/03/10 10:20:17;;;;;;;4.57;4.17;;;26.00;31.40;;;;;;5052884;28;20441;-81
2022/03/10 10:22:48;;;;;;;4.33;3.93;;;26.20;31.00;;;;;;5054267;28;20437;-81
2022/03/10 10:25:19;;;;;;;4.40;4.00;;;26.40;30.80;;;;;;5055381;28;20795;-80
2022/03/10 10:27:47;;;;;;;4.80;4.40;;;26.60;30.70;;;;;;5057414;28;20437;-81
2022/03/10 10:30:15;;;;;;;5.50;3.70;;;26.80;30.40;;;;;;5057374;28;20468;-82
2022/03/10 10:32:50;;;;;;;4.10;3.70;;;27.00;30.10;;;;;;5057627;28;20466;-81
2022/03/10 10:35:21;;;;;;;5.13;4.00;;;27.20;30.00;;;;;;5058685;28;20400;-81
2022/03/10 10:37:52;;;;;;;4.13;3.60;;;27.40;30.00;;;;;;5057604;28;20526;-81
2022/03/10 10:40:24;;;;;;;4.00;3.60;;;27.60;29.90;;;;;;5058945;28;20516;-81
2022/03/10 10:42:52;;;;;;;4.33;3.60;;;27.80;29.70;;;;;;5057418;28;20531;-81
2022/03/10 10:45:31;;;;;;;3.77;3.47;;;27.90;29.60;;;;;;5059351;28;20420;-82
2022/03/10 10:48:01;;;;;;;4.97;3.67;;;28.20;29.60;;;;;;5059187;28;20480;-82
2022/03/10 10:50:30;;;;;;;3.57;3.27;;;28.40;29.40;;;;;;5058669;28;20450;-81
2022/03/10 10:52:59;;;;;;;3.77;3.57;;;28.60;29.30;;;;;;5058633;28;20440;-82
2022/03/10 10:55:34;;;;;;;4.77;3.73;;;28.80;29.10;;;;;;5060708;28;20441;-82
2022/03/10 10:58:07;;;;;;;3.70;3.50;;;28.90;29.00;;;;;;5056357;28;20442;-81
2022/03/10 11:00:43;;;;;;;3.60;3.30;;;29.10;28.90;;;;;;5054916;28;20962;-80
2022/03/10 11:03:25;;;;;;;4.77;3.30;;;29.30;28.70;;;;;;5058577;28;20469;-80
2022/03/10 11:05:54;;;;;;;3.27;3.00;;;29.60;28.60;;;;;;5058950;28;20438;-80
2022/03/10 11:08:23;;;;;;;3.57;3.27;;;29.80;28.50;;;;;;5060519;28;20436;-80
2022/03/10 11:10:51;;;;;;;3.80;3.33;;;30.00;28.30;;;;;;5059586;28;20409;-82
2022/03/10 11:13:21;;;;;;;3.77;3.47;;;30.20;28.30;;;;;;5059512;28;20446;-82
2022/03/10 11:15:50;;;;;;;3.67;3.40;;;30.30;28.00;;;;;;5058484;28;20441;-82
2022/03/10 11:18:18;;;;;;;3.50;3.20;;;30.60;27.80;;;;;;5059825;28;20424;-82
2022/03/10 11:20:49;;;;;;;3.60;3.40;;;30.90;27.60;;;;;;5059409;28;20467;-82
2022/03/10 11:23:20;;;;;;;3.30;3.10;;;31.20;27.10;;;;;;5059274;28;20442;-82
2022/03/10 11:25:50;;;;;;;3.57;3.37;;;31.70;26.90;;;;;;5059657;28;20442;-81
2022/03/10 11:28:19;;;;;;;3.00;2.80;;;32.40;26.20;;;;;;5059286;28;20507;-81
2022/03/10 11:30:49;;;;;;;7.60;3.57;;;33.20;25.50;;;;;;5059901;28;20450;-81
2022/03/10 11:33:17;;;;;;;3.50;3.20;;;33.90;24.80;;;;;;5058696;28;20513;-81
2022/03/10 11:35:48;;;;;;;2.77;2.67;;;34.50;24.20;;;;;;5059111;28;20478;-82
2022/03/10 11:38:17;;;;;;;3.80;2.43;;;35.20;23.70;;;;;;5060865;28;20461;-82
2022/03/10 11:40:46;;;;;;;3.13;2.93;;;35.80;23.10;;;;;;5059522;28;20442;-82
2022/03/10 11:43:19;;;;;;;3.03;2.83;;;36.50;22.70;;;;;;5060671;28;20863;-83
2022/03/10 11:45:47;;;;;;;2.43;2.33;;;37.30;22.00;;;;;;5057364;28;20426;-83
2022/03/10 11:48:38;;;;;;;2.50;2.40;;;37.80;21.70;;;;;;5057211;28;20457;-83
2022/03/10 11:51:17;;;;;;;2.43;2.33;;;38.40;21.40;;;;;;5052498;28;20422;-83
2022/03/10 11:53:58;;;;;;;2.10;2.00;;;39.00;20.90;;;;;;5055086;28;20474;-83
2022/03/10 11:57:06;;;;;;;2.17;2.07;;;39.30;20.70;;;;;;5057633;28;20475;-83
2022/03/10 11:59:50;;;;;;;1.80;1.80;;;39.80;20.40;;;;;;5054110;28;20828;-84
2022/03/10 12:02:41;;;;;;;2.30;2.20;;;40.80;19.80;;;;;;5066235;28;20488;-83
2022/03/10 12:05:09;;;;;;;2.00;1.90;;;41.20;19.60;;;;;;5064280;28;20462;-82
2022/03/10 12:07:41;;;;;;;2.33;2.20;;;41.70;19.80;;;;;;5062721;28;20446;-82
2022/03/10 12:10:10;;;;;;;3.67;1.90;;;42.10;19.00;;;;;;5063696;28;20454;-82
2022/03/10 12:12:39;;;;;;;1.73;1.73;;;42.40;18.80;;;;;;5063818;28;20458;-82
2022/03/10 12:15:49;;;;;;;1.90;1.80;;;43.10;18.30;;;;;;5064785;28;20430;-81
2022/03/10 12:18:23;;;;;;;1.70;1.60;;;43.60;18.10;;;;;;5066344;28;20473;-83
2022/03/10 12:20:53;;;;;;;1.73;1.73;;;44.20;17.70;;;;;;5064422;28;20458;-83
2022/03/10 12:23:26;;;;;;;1.70;1.70;;;44.50;17.50;;;;;;5064635;28;20454;-83
2022/03/10 12:25:58;;;;;;;2.30;1.50;;;45.40;16.80;;;;;;5062588;28;20454;-83
2022/03/10 12:28:29;;;;;;;1.80;1.70;;;45.80;16.60;;;;;;5064515;28;20450;-82
2022/03/10 12:31:08;;;;;;;1.50;1.50;;;46.10;16.50;;;;;;5064757;28;20450;-82
2022/03/10 12:33:40;;;;;;;1.55;1.55;;;46.30;16.50;;;;;;5064084;28;20274;-83
2022/03/10 12:36:10;;;;;;;1.40;1.40;;;46.50;16.20;;;;;;5065010;28;20517;-82
2022/03/10 12:38:41;;;;;;;1.67;1.58;;;46.50;16.20;;;;;;5064508;28;20240;-83
2022/03/10 12:41:09;;;;;;;1.30;1.30;;;46.70;16.10;;;;;;5063607;28;20228;-83
2022/03/10 12:43:37;;;;;;;1.20;1.20;;;46.90;16.00;;;;;;5062075;28;20240;-83
2022/03/10 12:46:06;;;;;;;1.30;1.20;;;46.90;16.00;;;;;;5062875;28;20259;-83
2022/03/10 12:48:43;;;;;;;1.40;1.30;;;47.00;15.90;;;;;;5061997;28;20229;-83
2022/03/10 12:51:22;;;;;;;1.40;1.30;;;47.00;15.80;;;;;;5061665;28;20247;-83
2022/03/10 12:53:52;;;;;;;3.40;1.30;;;47.00;16.00;;;;;;5054031;28;20631;-83
2022/03/10 12:56:20;;;;;;;1.58;1.48;;;46.90;15.90;;;;;;5060237;28;20274;-83
2022/03/10 12:58:48;;;;;;;1.55;1.55;;;47.00;15.80;;;;;;5060949;28;20263;-83
2022/03/10 13:01:17;;;;;;;1.42;1.42;;;47.10;15.70;;;;;;5060547;28;20224;-83
2022/03/10 13:03:46;;;;;;;1.30;1.30;;;47.00;15.60;;;;;;5061705;28;20223;-83